Yakutat Airport
PAYA : now visible

Airfield :











YOU CAN JOIN US ON...

 
LOGIN :

Register | Disclaimer

   EN    FR    IT 

 









Legend :    VFR   Marginal VFR   IFR   Intensive IFR   Very Intensive IFR
Visi :
Ceiling :
>= 8 km
>= 3000ft
5 to 8 km
1000 to 3000 ft
1500m to 5 km
500 to 1000 ft
800 to 1500m
200 to 500 ft
< 800m
< 200 ft
Symbols :   Thunderstorms  Fog  Heavy snow  Heavy precipitations  Wind > 20 kt






- Airport Elevation : 33 ft


PAYA - Yakutat

CURRENT METAR :
  • 170653Z AUTO 00000KT 10SM SCT055 BKN075 OVC090 08/07 A2941 RMK AO2 SLP958 T00780067 TSNO $

EXPIRED METARs :
  • 170553Z AUTO 00000KT 10SM OVC060 08/07 A2943 RMK AO2 RAE31 SLP965 P0000 60003 T00780067 10094 20078 56027 TSNO $
  • 170453Z AUTO 00000KT 10SM -RA OVC050 08/07 A2946 RMK AO2 RAB03 SLP975 P0000 T00830067 TSNO $

TAF PAYA
Valid from the 17 at 06:00 until the 18 at 06:00 UTC


170537Z 1706/1806 07007KT 6SM -SHRA BKN035 OVC050 WS020/11035KT
FM171000 06007KT P6SM VCSH OVC050 AMD LTD TO CLD VIS AND WIND
PAZA FIR / North America



MET'MAP, your aeronautical weather chart ! - Copyright ORBIFLY December 2007 - Disclaimer

ORBIFLY MET'MAP TEAM :

Programming & Development : Alexandra Zaïnal
Concept & original design : Baudouin d'Aumeries
Assistance for programming : Marc-Olivier Méhu
Technical & hardware support : Manuel Goepfert

Contact : metmap@orbifly.com




SOURCES & CREDITS :

   NOAA       Earth
Advisory